Latest Weather Observations for Roxby Downs

IDS60801

Issued at 10:31 am CST Thursday 2 July 2015 (issued every 30 minutes, with the page automatically refreshed every 10 minutes)

About weather observations | Map of weather stations | Latest weather observations for SA | Other Formats
Station Details ID: 016096 Name: OLYMPIC DAM AERODROME Lat: -30.48 Lon: 136.88 Height: 98.5 m
Data from the previous 72 hours. | See also: Recent months at Roxby Downs
Date/Time
CST
Temp
°C
App
Temp
°C
Dew
Point
Rel
Hum
%
Delta-T
°C
Wind Press
QNH
hPa
Press
MSL
hPa
Rain
since 9 am
mm
Dir
 
Spd
km/h
Gust
km/h
Spd
kts
Gust
kts
02/10:30am 14.0 9.4 3.5 49 4.7 SSE 17 20 9 11 1031.0 1031.1 0.0
02/10:00am 13.1 8.8 3.5 52 4.3 SE 15 19 8 10 1031.1 1031.2 0.0
02/09:30am 11.6 7.8 4.1 60 3.3 SSE 13 15 7 8 1030.8 1030.9 0.0
02/09:00am 8.5 4.9 3.1 69 2.3 SSE 11 13 6 7 1030.6 1030.7 0.0
02/08:30am 6.0 3.2 3.0 81 1.2 S 7 9 4 5 1030.6 1030.7 0.0
02/08:00am 2.0 0.2 1.1 94 0.3 CALM 0 7 0 4 1030.6 1030.7 0.0
02/07:30am -0.1 -2.3 -1.4 91 0.4 CALM 0 0 0 0 1030.1 1030.2 0.0
02/07:00am -0.1 -2.3 -1.4 91 0.5 CALM 0 0 0 0 1029.7 1029.8 0.0
02/06:30am 0.2 -1.9 -1.1 91 0.5 CALM 0 0 0 0 1029.3 1029.4 0.0
02/06:00am 0.1 -2.1 -1.3 90 0.5 CALM 0 0 0 0 1029.0 1029.1 0.0
02/05:30am 0.3 -1.8 -1.1 90 0.5 CALM 0 0 0 0 1028.7 1028.8 0.0
02/05:00am 0.6 -1.5 -1.0 89 0.6 CALM 0 0 0 0 1028.6 1028.7 0.0
02/04:30am 1.0 -1.1 -0.5 90 0.5 CALM 0 0 0 0 1028.3 1028.4 0.0
02/04:00am 1.1 -1.0 -0.5 89 0.6 CALM 0 0 0 0 1028.2 1028.3 0.0
02/03:30am 1.3 -1.9 -0.6 87 0.7 SSE 6 7 3 4 1028.3 1028.4 0.0
02/03:00am 1.8 -1.5 0.2 89 0.6 S 7 9 4 5 1028.3 1028.4 0.0
02/02:30am 1.8 -1.6 -0.3 86 0.8 SSE 7 7 4 4 1028.6 1028.7 0.0
02/02:00am 2.6 -0.4 0.7 87 0.7 S 6 7 3 4 1028.6 1028.7 0.0
02/01:30am 3.3 0.2 1.2 86 0.8 SSW 7 9 4 5 1028.8 1028.9 0.0
02/01:00am 3.2 0.1 0.4 82 1.1 S 6 7 3 4 1028.8 1028.9 0.0
02/12:30am 3.9 1.0 1.3 83 1.0 S 6 6 3 3 1028.9 1029.0 0.0
02/12:00am 4.7 1.6 1.4 79 1.3 SSE 7 7 4 4 1028.9 1029.0 0.0
 
Date/Time
CST
Temp
°C
App
Temp
°C
Dew
Point
Rel
Hum
%
Delta-T
°C
Wind Press
QNH
hPa
Press
MSL
hPa
Rain
since 9 am
mm
Dir
 
Spd
km/h
Gust
km/h
Spd
kts
Gust
kts
01/11:30pm 5.7 2.9 2.2 78 1.4 S 6 7 3 4 1029.3 1029.4 0.0
01/11:00pm 6.3 4.7 2.2 75 1.7 CALM 0 0 0 0 1029.0 1029.1 0.0
01/10:30pm 7.5 5.0 3.6 76 1.7 SSE 6 7 3 4 1029.1 1029.2 0.0
01/10:00pm 7.4 4.6 3.1 74 1.8 SSE 7 7 4 4 1029.0 1029.1 0.0
01/09:30pm 7.5 4.6 2.8 72 2.0 SSE 7 9 4 5 1028.9 1029.0 0.0
01/09:00pm 8.5 5.9 3.1 69 2.3 S 6 6 3 3 1029.1 1029.2 0.0
01/08:30pm 9.4 7.9 3.2 65 2.7 CALM 0 0 0 0 1028.7 1028.8 0.0
01/08:00pm 10.0 8.6 3.5 64 2.8 CALM 0 0 0 0 1028.6 1028.7 0.0
01/07:30pm 10.3 9.0 4.0 65 2.8 CALM 0 0 0 0 1028.3 1028.4 0.0
01/07:00pm 10.9 8.8 3.7 61 3.2 SE 4 6 2 3 1028.1 1028.2 0.0
01/06:30pm 12.4 9.8 3.4 54 4.0 SSE 6 7 3 4 1027.9 1028.0 0.0
01/06:00pm 13.9 11.1 3.1 48 4.8 SSW 7 9 4 5 1027.7 1027.8 0.0
01/05:30pm 15.0 11.8 3.2 45 5.3 SSW 9 11 5 6 1027.6 1027.7 0.0
01/05:00pm 15.9 12.3 3.0 42 5.9 SW 11 15 6 8 1027.3 1027.4 0.0
01/04:30pm 16.5 12.8 2.5 39 6.3 SSW 11 15 6 8 1027.4 1027.5 0.0
01/04:00pm 17.3 13.6 2.5 37 6.8 SSW 11 15 6 8 1027.4 1027.5 0.0
01/03:30pm 17.9 13.9 2.6 36 7.0 SW 13 22 7 12 1027.5 1027.6 0.0
01/03:00pm 17.9 13.4 2.2 35 7.1 WSW 15 20 8 11 1027.6 1027.7 0.0
01/02:30pm 17.7 13.6 2.1 35 7.0 WSW 13 17 7 9 1027.7 1027.8 0.0
01/02:00pm 17.5 14.0 1.5 34 7.2 WSW 9 15 5 8 1027.9 1028.0 0.0
01/01:30pm 17.2 13.8 1.6 35 6.9 WNW 9 19 5 10 1028.3 1028.4 0.0
01/01:00pm 16.7 13.2 1.2 35 6.9 W 9 13 5 7 1029.1 1029.2 0.0
01/12:30pm 16.0 12.5 1.3 37 6.4 WNW 9 15 5 8 1029.6 1029.7 0.0
01/12:00pm 15.3 12.2 1.1 38 6.1 NW 7 13 4 7 1030.2 1030.3 0.0
01/11:30am 14.8 11.1 2.4 43 5.5 NW 11 15 6 8 1030.7 1030.8 0.0
01/11:00am 13.8 10.2 3.0 48 4.8 NW 11 13 6 7 1031.0 1031.1 0.0
01/10:30am 13.2 10.5 3.6 52 4.3 NNW 7 11 4 6 1031.6 1031.7 0.0
01/10:00am 11.7 9.1 3.2 56 3.8 N 6 9 3 5 1031.6 1031.7 0.0
01/09:30am 10.3 8.8 3.1 61 3.1 CALM 0 0 0 0 1031.3 1031.4 0.0
01/09:00am 7.4 5.7 2.1 69 2.2 CALM 0 0 0 0 1031.0 1031.1 0.0
01/08:30am 4.3 2.3 0.1 74 1.6 CALM 0 0 0 0 1030.9 1031.0 0.0
01/08:00am 1.1 -1.1 -1.3 84 0.8 CALM 0 0 0 0 1030.6 1030.7 0.0
01/07:30am -0.9 -3.3 -2.8 87 0.6 CALM 0 0 0 0 1030.3 1030.4 0.0
01/07:00am -0.8 -3.1 -2.7 87 0.6 CALM 0 0 0 0 1030.1 1030.2 0.0
01/06:30am -1.2 -3.6 -2.8 89 0.5 CALM 0 0 0 0 1030.0 1030.1 0.0
01/06:00am -0.9 -3.2 -2.6 88 0.5 CALM 0 0 0 0 1029.8 1029.9 0.0
01/05:30am -0.8 -3.1 -2.7 87 0.6 CALM 0 0 0 0 1029.6 1029.7 0.0
01/05:00am -0.5 -2.8 -2.5 86 0.7 CALM 0 0 0 0 1029.5 1029.6 0.0
01/04:30am -0.3 -2.6 -2.2 87 0.6 CALM 0 0 0 0 1029.6 1029.7 0.0
01/04:00am -0.3 -2.6 -2.3 86 0.7 CALM 0 0 0 0 1029.4 1029.5 0.0
01/03:30am 0.1 -2.2 -2.0 86 0.7 CALM 0 0 0 0 1029.4 1029.5 0.0
01/03:00am 0.2 -2.8 -2.0 85 0.8 SSE 4 7 2 4 1029.5 1029.6 0.0
01/02:30am 0.6 -1.6 -1.6 85 0.8 CALM 0 0 0 0 1029.4 1029.5 0.0
01/02:00am 0.7 -1.5 -1.8 83 0.9 CALM 0 0 0 0 1029.3 1029.4 0.0
01/01:30am 0.9 -2.1 -2.0 81 1.0 SSE 4 6 2 3 1029.3 1029.4 0.0
01/01:00am 1.7 -1.8 -1.4 80 1.1 SSE 7 7 4 4 1029.2 1029.3 0.0
01/12:30am 2.5 -0.8 -0.9 78 1.2 SSE 6 9 3 5 1029.3 1029.4 0.0
01/12:00am 2.9 0.9 -0.4 79 1.2 CALM 0 0 0 0 1029.4 1029.5 0.0
 
Date/Time
CST
Temp
°C
App
Temp
°C
Dew
Point
Rel
Hum
%
Delta-T
°C
Wind Press
QNH
hPa
Press
MSL
hPa
Rain
since 9 am
mm
Dir
 
Spd
km/h
Gust
km/h
Spd
kts
Gust
kts
30/11:30pm 2.4 0.3 -1.0 78 1.2 CALM 0 0 0 0 1029.5 1029.6 0.0
30/11:00pm 3.3 1.2 -0.5 76 1.4 CALM 0 2 0 1 1029.6 1029.7 0.0
30/10:30pm 3.4 0.2 -0.8 74 1.5 SSE 6 7 3 4 1029.8 1029.9 0.0
30/10:00pm 4.5 1.1 -0.5 70 1.9 SSE 7 7 4 4 1030.0 1030.1 0.0
30/09:30pm 6.1 2.4 -0.2 64 2.4 SE 9 11 5 6 1030.2 1030.3 0.0
30/09:00pm 6.3 3.0 -0.2 63 2.5 SSE 7 9 4 5 1030.2 1030.3 0.0
30/08:30pm 7.8 4.5 -0.2 57 3.1 SE 7 9 4 5 1030.0 1030.1 0.0
30/08:00pm 9.7 6.0 0.1 51 3.9 S 9 11 5 6 1029.6 1029.7 0.0
30/07:30pm 10.8 6.3 0.0 47 4.4 SSW 13 13 7 7 1029.3 1029.4 0.0
30/07:00pm 11.0 6.9 0.1 47 4.5 SSW 11 13 6 7 1029.1 1029.2 0.0
30/06:30pm 10.0 6.8 -0.2 49 4.1 S 6 7 3 4 1028.6 1028.7 0.0
30/06:00pm 12.8 9.3 -1.1 38 5.6 S 7 9 4 5 1028.3 1028.4 0.0
30/05:30pm 15.0 10.0 -1.5 32 6.7 S 15 20 8 11 1028.3 1028.4 0.0
30/05:00pm 16.3 10.9 -1.3 30 7.4 SSW 17 22 9 12 1028.1 1028.2 0.0
30/04:30pm 16.9 12.0 -0.8 30 7.5 SSW 15 20 8 11 1027.8 1027.9 0.0
30/04:00pm 17.3 12.3 -1.4 28 7.9 SW 15 22 8 12 1027.7 1027.7 0.0
30/03:30pm 17.5 12.9 -1.2 28 7.9 SSW 13 24 7 13 1027.7 1027.7 0.0
30/03:00pm 17.7 12.7 -1.0 28 7.9 SSW 15 24 8 13 1027.6 1027.6 0.0
30/02:30pm 17.6 12.4 -0.2 30 7.7 SW 17 24 9 13 1027.6 1027.6 0.0
30/02:00pm 17.5 12.0 0.6 32 7.4 SSW 19 28 10 15 1028.0 1028.1 0.0
30/01:30pm 17.1 11.5 1.1 34 7.0 SSW 20 26 11 14 1028.3 1028.4 0.0
30/01:00pm 17.0 11.6 1.4 35 6.9 SSW 19 33 10 18 1028.8 1028.9 0.0
30/12:30pm 17.1 12.1 1.5 35 6.9 SSW 17 24 9 13 1029.3 1029.4 0.0
30/12:00pm 16.8 13.5 2.4 38 6.5 S 9 15 5 8 1029.8 1029.9 0.0
30/11:30am 16.0 13.4 3.4 43 5.8 SW 6 11 3 6 1030.1 1030.2 0.0
30/11:00am 15.6 13.0 4.0 46 5.4 SSE 7 13 4 7 1030.4 1030.5 0.0
30/10:30am 14.7 12.3 4.4 50 4.8 SSE 6 9 3 5 1030.7 1030.8 0.0
30/10:00am 12.8 11.5 4.3 56 3.9 CALM 0 7 0 4 1030.8 1030.9 0.0
30/09:30am 11.1 8.7 4.3 63 3.0 SSE 6 9 3 5 1030.4 1030.5 0.0
30/09:00am 9.1 6.4 3.7 69 2.3 SSE 7 9 4 5 1030.1 1030.2 0.0
30/08:30am 7.2 5.8 3.6 78 1.5 CALM 0 6 0 3 1029.8 1029.9 0.0
30/08:00am 3.6 0.7 2.4 92 0.5 SSW 7 9 4 5 1029.7 1029.8 0.0
30/07:30am 3.1 1.0 1.9 92 0.5 SSE 2 7 1 4 1029.5 1029.6 0.0
30/07:00am 2.8 -0.7 1.5 91 0.5 SSE 9 9 5 5 1028.9 1029.0 0.0
30/06:30am 3.1 0.0 1.5 89 0.6 S 7 9 4 5 1028.4 1028.5 0.0
30/06:00am 3.7 0.3 2.1 89 0.6 S 9 11 5 6 1028.3 1028.4 0.0
30/05:30am 3.7 0.3 2.1 89 0.6 SSE 9 9 5 5 1028.3 1028.4 0.0
30/05:00am 4.5 1.2 2.5 87 0.8 S 9 9 5 5 1028.2 1028.3 0.0
30/04:30am 4.0 2.4 2.4 89 0.6 CALM 0 0 0 0 1028.1 1028.2 0.0
30/04:00am 3.8 2.1 1.8 87 0.8 CALM 0 0 0 0 1028.0 1028.1 0.0
30/03:30am 4.2 2.5 1.9 85 0.9 CALM 0 0 0 0 1028.0 1028.1 0.0
30/03:00am 4.7 3.1 2.2 84 1.0 CALM 0 0 0 0 1028.0 1028.1 0.0
30/02:30am 5.7 4.3 3.4 85 1.0 CALM 0 0 0 0 1028.1 1028.2 0.0
30/02:00am 5.7 4.1 2.5 80 1.3 CALM 0 0 0 0 1028.1 1028.2 0.0
30/01:30am 6.4 4.9 3.2 80 1.3 CALM 0 0 0 0 1028.2 1028.3 0.0
30/01:00am 7.3 6.0 3.9 79 1.5 CALM 0 0 0 0 1028.4 1028.5 0.0
30/12:30am 8.5 7.2 4.1 74 1.9 CALM 0 0 0 0 1028.5 1028.6 0.0
30/12:00am 10.2 9.1 5.2 71 2.3 CALM 0 0 0 0 1028.6 1028.7 0.0
 
Date/Time
CST
Temp
°C
App
Temp
°C
Dew
Point
Rel
Hum
%
Delta-T
°C
Wind Press
QNH
hPa
Press
MSL
hPa
Rain
since 9 am
mm
Dir
 
Spd
km/h
Gust
km/h
Spd
kts
Gust
kts
29/11:30pm 11.5 9.1 5.4 66 2.8 SSE 7 9 4 5 1028.9 1029.0 0.0
29/11:00pm 12.1 9.9 5.5 64 3.1 SSE 6 7 3 4 1029.0 1029.1 0.0
29/10:30pm 12.0 9.3 5.6 65 3.0 S 9 11 5 6 1029.0 1029.1 0.0
29/10:00pm 11.8 9.1 5.4 65 3.0 S 9 9 5 5 1029.1 1029.2 0.0
29/09:30pm 12.2 9.4 5.1 62 3.3 S 9 11 5 6 1029.2 1029.3 0.0
29/09:00pm 12.2 10.0 5.1 62 3.3 S 6 7 3 4 1029.1 1029.2 0.0
29/08:30pm 12.0 9.8 5.4 64 3.0 SSE 6 7 3 4 1029.0 1029.1 0.0
29/08:00pm 13.1 10.6 5.0 58 3.8 SSE 7 7 4 4 1028.8 1028.9 0.0
29/07:30pm 14.4 11.9 4.7 52 4.5 SSE 7 11 4 6 1028.6 1028.7 0.0
29/07:00pm 15.2 12.3 4.9 50 4.9 SSE 9 11 5 6 1028.4 1028.5 0.0
29/06:30pm 15.6 12.4 4.9 49 5.0 S 11 13 6 7 1028.3 1028.4 0.0
29/06:00pm 15.7 12.9 5.3 50 4.9 S 9 11 5 6 1028.1 1028.2 0.0
29/05:30pm 16.4 13.7 5.4 48 5.3 S 9 13 5 7 1027.8 1027.9 0.0
29/05:00pm 16.8 13.6 5.1 46 5.6 SSE 11 13 6 7 1027.7 1027.7 0.0
29/04:30pm 17.2 14.0 5.2 45 5.7 S 11 15 6 8 1027.7 1027.7 0.0
29/04:00pm 17.4 14.1 4.7 43 6.1 SSE 11 13 6 7 1027.6 1027.6 0.0
29/03:30pm 17.5 14.2 4.8 43 6.0 S 11 15 6 8 1027.6 1027.6 0.0
29/03:00pm 17.6 14.4 5.2 44 6.0 S 11 17 6 9 1027.8 1027.9 0.0
29/02:30pm 17.7 14.5 5.0 43 6.1 SSE 11 15 6 8 1028.0 1028.1 0.0
29/02:00pm 17.9 14.7 5.2 43 6.2 S 11 17 6 9 1028.3 1028.4 0.0
29/01:30pm 17.9 15.0 4.5 41 6.4 S 9 15 5 8 1028.4 1028.5 0.0
29/01:00pm 17.5 14.5 4.1 41 6.3 SSE 9 15 5 8 1029.0 1029.1 0.0
29/12:30pm 17.0 14.1 4.7 44 5.8 SE 9 13 5 7 1029.6 1029.7 0.0
29/12:00pm 16.4 13.1 4.8 46 5.5 SSE 11 15 6 8 1030.0 1030.1 0.0
29/11:30am 15.7 12.8 4.4 47 5.3 SE 9 11 5 6 1030.4 1030.5 0.0
29/11:00am 15.2 12.0 4.9 50 4.9 ESE 11 15 6 8 1030.7 1030.8 0.0

Other Formats:

Comma delimited format used in spreadsheet applications
http://www.bom.gov.au/fwo/IDS60801/IDS60801.95658.axf

JavaScript Object Notation format (JSON) in row-major order
http://www.bom.gov.au/fwo/IDS60801/IDS60801.95658.json